sensor_id;sensor_type;location;lat;lon;timestamp;temperature;humidity
3690;DHT22;1861;50.240;8.596;2023-09-08T00:01:42;20.10;99.90
3690;DHT22;1861;50.240;8.596;2023-09-08T00:04:11;20.10;99.90
3690;DHT22;1861;50.240;8.596;2023-09-08T00:06:39;20.10;99.90
3690;DHT22;1861;50.240;8.596;2023-09-08T00:09:08;20.10;99.90
3690;DHT22;1861;50.240;8.596;2023-09-08T00:11:36;20.10;99.90
3690;DHT22;1861;50.240;8.596;2023-09-08T00:14:04;20.00;99.90
3690;DHT22;1861;50.240;8.596;2023-09-08T00:16:33;20.10;99.90
3690;DHT22;1861;50.240;8.596;2023-09-08T00:19:02;20.10;99.90
3690;DHT22;1861;50.240;8.596;2023-09-08T00:21:30;20.00;99.90
3690;DHT22;1861;50.240;8.596;2023-09-08T00:23:58;20.00;99.90
3690;DHT22;1861;50.240;8.596;2023-09-08T00:26:27;20.00;99.90
3690;DHT22;1861;50.240;8.596;2023-09-08T00:28:55;20.00;99.90
3690;DHT22;1861;50.240;8.596;2023-09-08T00:31:24;20.00;99.90
3690;DHT22;1861;50.240;8.596;2023-09-08T00:33:53;20.00;99.90
3690;DHT22;1861;50.240;8.596;2023-09-08T00:36:22;20.00;99.90
3690;DHT22;1861;50.240;8.596;2023-09-08T00:38:50;20.00;99.90
3690;DHT22;1861;50.240;8.596;2023-09-08T00:41:18;20.00;99.90
3690;DHT22;1861;50.240;8.596;2023-09-08T00:43:46;20.00;99.90
3690;DHT22;1861;50.240;8.596;2023-09-08T00:46:14;20.00;99.90
3690;DHT22;1861;50.240;8.596;2023-09-08T00:48:43;20.00;99.90
3690;DHT22;1861;50.240;8.596;2023-09-08T00:51:12;20.00;99.90
3690;DHT22;1861;50.240;8.596;2023-09-08T00:53:41;19.90;99.90
3690;DHT22;1861;50.240;8.596;2023-09-08T00:56:09;19.90;99.90
3690;DHT22;1861;50.240;8.596;2023-09-08T00:58:38;19.90;99.90
3690;DHT22;1861;50.240;8.596;2023-09-08T01:01:06;19.90;99.90
3690;DHT22;1861;50.240;8.596;2023-09-08T01:03:35;19.90;99.90
3690;DHT22;1861;50.240;8.596;2023-09-08T01:06:03;19.90;99.90
3690;DHT22;1861;50.240;8.596;2023-09-08T01:08:34;19.90;99.90
3690;DHT22;1861;50.240;8.596;2023-09-08T01:11:03;19.90;99.90
3690;DHT22;1861;50.240;8.596;2023-09-08T01:13:31;19.90;99.90
3690;DHT22;1861;50.240;8.596;2023-09-08T01:16:01;19.80;99.90
3690;DHT22;1861;50.240;8.596;2023-09-08T01:18:29;19.80;99.90
3690;DHT22;1861;50.240;8.596;2023-09-08T01:21:12;19.80;99.90
3690;DHT22;1861;50.240;8.596;2023-09-08T01:23:56;19.90;99.90
3690;DHT22;1861;50.240;8.596;2023-09-08T01:26:31;19.80;99.90
3690;DHT22;1861;50.240;8.596;2023-09-08T01:29:03;19.80;99.90
3690;DHT22;1861;50.240;8.596;2023-09-08T01:31:33;19.80;99.90
3690;DHT22;1861;50.240;8.596;2023-09-08T01:34:02;19.80;99.90
3690;DHT22;1861;50.240;8.596;2023-09-08T01:36:34;19.80;99.90
3690;DHT22;1861;50.240;8.596;2023-09-08T01:39:02;19.80;99.90
3690;DHT22;1861;50.240;8.596;2023-09-08T01:41:32;19.80;99.90
3690;DHT22;1861;50.240;8.596;2023-09-08T01:44:00;19.80;99.90
3690;DHT22;1861;50.240;8.596;2023-09-08T01:46:34;19.80;99.90
3690;DHT22;1861;50.240;8.596;2023-09-08T01:49:03;19.80;99.90
3690;DHT22;1861;50.240;8.596;2023-09-08T01:51:31;19.80;99.90
3690;DHT22;1861;50.240;8.596;2023-09-08T01:54:00;19.70;99.90
3690;DHT22;1861;50.240;8.596;2023-09-08T01:56:28;19.70;99.90
3690;DHT22;1861;50.240;8.596;2023-09-08T01:58:57;19.70;99.90
3690;DHT22;1861;50.240;8.596;2023-09-08T02:01:26;19.60;99.90
3690;DHT22;1861;50.240;8.596;2023-09-08T02:03:55;19.60;99.90
3690;DHT22;1861;50.240;8.596;2023-09-08T02:06:23;19.60;99.90
3690;DHT22;1861;50.240;8.596;2023-09-08T02:08:52;19.60;99.90
3690;DHT22;1861;50.240;8.596;2023-09-08T02:11:20;19.60;99.90
3690;DHT22;1861;50.240;8.596;2023-09-08T02:13:48;19.60;99.90
3690;DHT22;1861;50.240;8.596;2023-09-08T02:16:18;19.60;99.90
3690;DHT22;1861;50.240;8.596;2023-09-08T02:18:50;19.50;99.90
3690;DHT22;1861;50.240;8.596;2023-09-08T02:21:19;19.60;99.90
3690;DHT22;1861;50.240;8.596;2023-09-08T02:23:47;19.60;99.90
3690;DHT22;1861;50.240;8.596;2023-09-08T02:26:15;19.60;99.90
3690;DHT22;1861;50.240;8.596;2023-09-08T02:28:43;19.50;99.90
3690;DHT22;1861;50.240;8.596;2023-09-08T02:31:12;19.60;99.90
3690;DHT22;1861;50.240;8.596;2023-09-08T02:33:42;19.60;99.90
3690;DHT22;1861;50.240;8.596;2023-09-08T02:36:10;19.60;99.90
3690;DHT22;1861;50.240;8.596;2023-09-08T02:38:40;19.60;99.90
3690;DHT22;1861;50.240;8.596;2023-09-08T02:41:08;19.50;99.90
3690;DHT22;1861;50.240;8.596;2023-09-08T02:43:36;19.60;99.90
3690;DHT22;1861;50.240;8.596;2023-09-08T02:46:04;19.60;99.90
3690;DHT22;1861;50.240;8.596;2023-09-08T02:48:32;19.60;99.90
3690;DHT22;1861;50.240;8.596;2023-09-08T02:51:02;19.60;99.90
3690;DHT22;1861;50.240;8.596;2023-09-08T02:53:31;19.50;99.90
3690;DHT22;1861;50.240;8.596;2023-09-08T02:56:00;19.50;99.90
3690;DHT22;1861;50.240;8.596;2023-09-08T02:58:30;19.50;99.90
3690;DHT22;1861;50.240;8.596;2023-09-08T03:01:10;19.50;99.90
3690;DHT22;1861;50.240;8.596;2023-09-08T03:03:41;19.50;99.90
3690;DHT22;1861;50.240;8.596;2023-09-08T03:06:13;19.60;99.90
3690;DHT22;1861;50.240;8.596;2023-09-08T03:08:41;19.50;99.90
3690;DHT22;1861;50.240;8.596;2023-09-08T03:11:10;19.40;99.90
3690;DHT22;1861;50.240;8.596;2023-09-08T03:13:39;19.50;99.90
3690;DHT22;1861;50.240;8.596;2023-09-08T03:16:09;19.40;99.90
3690;DHT22;1861;50.240;8.596;2023-09-08T03:18:38;19.40;99.90
3690;DHT22;1861;50.240;8.596;2023-09-08T03:21:06;19.40;99.90
3690;DHT22;1861;50.240;8.596;2023-09-08T03:23:40;19.50;99.90
3690;DHT22;1861;50.240;8.596;2023-09-08T03:26:09;19.40;99.90
3690;DHT22;1861;50.240;8.596;2023-09-08T03:28:38;19.50;99.90
3690;DHT22;1861;50.240;8.596;2023-09-08T03:31:06;19.40;99.90
3690;DHT22;1861;50.240;8.596;2023-09-08T03:33:35;19.30;99.90
3690;DHT22;1861;50.240;8.596;2023-09-08T03:36:04;19.30;99.90
3690;DHT22;1861;50.240;8.596;2023-09-08T03:38:33;19.30;99.90
3690;DHT22;1861;50.240;8.596;2023-09-08T03:41:06;19.30;99.90
3690;DHT22;1861;50.240;8.596;2023-09-08T03:43:34;19.30;99.90
3690;DHT22;1861;50.240;8.596;2023-09-08T03:46:03;19.20;99.90
3690;DHT22;1861;50.240;8.596;2023-09-08T03:48:31;19.40;99.90
3690;DHT22;1861;50.240;8.596;2023-09-08T03:51:00;19.40;99.90
3690;DHT22;1861;50.240;8.596;2023-09-08T03:53:28;19.30;99.90
3690;DHT22;1861;50.240;8.596;2023-09-08T03:55:57;19.20;99.90
3690;DHT22;1861;50.240;8.596;2023-09-08T03:58:26;19.20;99.90
3690;DHT22;1861;50.240;8.596;2023-09-08T04:00:56;19.30;99.90
3690;DHT22;1861;50.240;8.596;2023-09-08T04:03:24;19.30;99.90
3690;DHT22;1861;50.240;8.596;2023-09-08T04:05:52;19.30;99.90
3690;DHT22;1861;50.240;8.596;2023-09-08T04:08:21;19.30;99.90
3690;DHT22;1861;50.240;8.596;2023-09-08T04:10:49;19.30;99.90
3690;DHT22;1861;50.240;8.596;2023-09-08T04:13:17;19.30;99.90
3690;DHT22;1861;50.240;8.596;2023-09-08T04:15:46;19.30;99.90
3690;DHT22;1861;50.240;8.596;2023-09-08T04:18:14;19.30;99.90
3690;DHT22;1861;50.240;8.596;2023-09-08T04:20:43;19.10;99.90
3690;DHT22;1861;50.240;8.596;2023-09-08T04:23:11;19.10;99.90
3690;DHT22;1861;50.240;8.596;2023-09-08T04:25:39;19.10;99.90
3690;DHT22;1861;50.240;8.596;2023-09-08T04:28:08;19.10;99.90
3690;DHT22;1861;50.240;8.596;2023-09-08T04:30:36;19.10;99.90
3690;DHT22;1861;50.240;8.596;2023-09-08T04:33:05;19.10;99.90
3690;DHT22;1861;50.240;8.596;2023-09-08T04:35:34;19.00;99.90
3690;DHT22;1861;50.240;8.596;2023-09-08T04:38:02;19.10;99.90
3690;DHT22;1861;50.240;8.596;2023-09-08T04:40:31;19.10;99.90
3690;DHT22;1861;50.240;8.596;2023-09-08T04:42:59;19.10;99.90
3690;DHT22;1861;50.240;8.596;2023-09-08T04:45:27;19.10;99.90
3690;DHT22;1861;50.240;8.596;2023-09-08T04:47:57;19.10;99.90
3690;DHT22;1861;50.240;8.596;2023-09-08T04:50:26;19.10;99.90
3690;DHT22;1861;50.240;8.596;2023-09-08T04:52:55;19.00;99.90
3690;DHT22;1861;50.240;8.596;2023-09-08T04:55:23;19.00;99.90
3690;DHT22;1861;50.240;8.596;2023-09-08T04:57:51;19.00;99.90
3690;DHT22;1861;50.240;8.596;2023-09-08T05:00:19;19.00;99.90
3690;DHT22;1861;50.240;8.596;2023-09-08T05:02:47;19.00;99.90
3690;DHT22;1861;50.240;8.596;2023-09-08T05:05:16;19.00;99.90
3690;DHT22;1861;50.240;8.596;2023-09-08T05:07:46;19.00;99.90
3690;DHT22;1861;50.240;8.596;2023-09-08T05:10:15;19.10;99.90
3690;DHT22;1861;50.240;8.596;2023-09-08T05:12:43;19.10;99.90
3690;DHT22;1861;50.240;8.596;2023-09-08T05:15:11;19.10;99.90
3690;DHT22;1861;50.240;8.596;2023-09-08T05:17:46;19.10;99.90
3690;DHT22;1861;50.240;8.596;2023-09-08T05:20:16;19.10;99.90
3690;DHT22;1861;50.240;8.596;2023-09-08T05:22:45;19.10;99.90
3690;DHT22;1861;50.240;8.596;2023-09-08T05:25:13;19.10;99.90
3690;DHT22;1861;50.240;8.596;2023-09-08T05:27:42;19.10;99.90
3690;DHT22;1861;50.240;8.596;2023-09-08T05:30:10;19.20;99.90
3690;DHT22;1861;50.240;8.596;2023-09-08T05:32:39;19.20;99.90
3690;DHT22;1861;50.240;8.596;2023-09-08T05:35:08;19.20;99.90
3690;DHT22;1861;50.240;8.596;2023-09-08T05:37:36;19.20;99.90
3690;DHT22;1861;50.240;8.596;2023-09-08T05:40:07;19.10;99.90
3690;DHT22;1861;50.240;8.596;2023-09-08T05:42:35;19.20;99.90
3690;DHT22;1861;50.240;8.596;2023-09-08T05:45:04;19.20;99.90
3690;DHT22;1861;50.240;8.596;2023-09-08T05:47:33;19.20;99.90
3690;DHT22;1861;50.240;8.596;2023-09-08T05:50:03;19.20;99.90
3690;DHT22;1861;50.240;8.596;2023-09-08T05:52:32;19.30;99.90
3690;DHT22;1861;50.240;8.596;2023-09-08T05:55:01;19.30;99.90
3690;DHT22;1861;50.240;8.596;2023-09-08T05:57:32;19.30;99.90
3690;DHT22;1861;50.240;8.596;2023-09-08T06:00:02;19.30;99.90
3690;DHT22;1861;50.240;8.596;2023-09-08T06:02:39;19.30;99.90
3690;DHT22;1861;50.240;8.596;2023-09-08T06:05:10;19.30;99.90
3690;DHT22;1861;50.240;8.596;2023-09-08T06:07:39;19.30;99.90
3690;DHT22;1861;50.240;8.596;2023-09-08T06:10:20;19.30;99.90
3690;DHT22;1861;50.240;8.596;2023-09-08T06:12:49;19.40;99.90
3690;DHT22;1861;50.240;8.596;2023-09-08T06:15:17;19.40;99.90
3690;DHT22;1861;50.240;8.596;2023-09-08T06:17:46;19.50;99.90
3690;DHT22;1861;50.240;8.596;2023-09-08T06:20:15;19.50;99.90
3690;DHT22;1861;50.240;8.596;2023-09-08T06:22:43;19.50;99.90
3690;DHT22;1861;50.240;8.596;2023-09-08T06:25:11;19.50;99.90
3690;DHT22;1861;50.240;8.596;2023-09-08T06:27:40;19.50;99.90
3690;DHT22;1861;50.240;8.596;2023-09-08T06:30:11;19.50;99.90
3690;DHT22;1861;50.240;8.596;2023-09-08T06:32:40;19.60;99.90
3690;DHT22;1861;50.240;8.596;2023-09-08T06:35:09;19.60;99.90
3690;DHT22;1861;50.240;8.596;2023-09-08T06:37:38;19.60;99.90
3690;DHT22;1861;50.240;8.596;2023-09-08T06:40:07;19.70;99.90
3690;DHT22;1861;50.240;8.596;2023-09-08T06:42:35;19.70;99.90
3690;DHT22;1861;50.240;8.596;2023-09-08T06:45:18;19.70;99.90
3690;DHT22;1861;50.240;8.596;2023-09-08T06:47:46;19.80;99.90
3690;DHT22;1861;50.240;8.596;2023-09-08T06:50:17;19.80;99.90
3690;DHT22;1861;50.240;8.596;2023-09-08T06:52:45;19.80;99.90
3690;DHT22;1861;50.240;8.596;2023-09-08T06:55:13;19.90;99.90
3690;DHT22;1861;50.240;8.596;2023-09-08T06:57:44;19.90;99.90
3690;DHT22;1861;50.240;8.596;2023-09-08T07:00:13;19.90;99.90
3690;DHT22;1861;50.240;8.596;2023-09-08T07:02:45;20.00;99.90
3690;DHT22;1861;50.240;8.596;2023-09-08T07:05:15;19.90;99.90
3690;DHT22;1861;50.240;8.596;2023-09-08T07:07:44;20.00;99.90
3690;DHT22;1861;50.240;8.596;2023-09-08T07:10:13;20.00;99.90
3690;DHT22;1861;50.240;8.596;2023-09-08T07:12:42;20.00;99.90
3690;DHT22;1861;50.240;8.596;2023-09-08T07:15:10;20.00;99.90
3690;DHT22;1861;50.240;8.596;2023-09-08T07:17:38;20.00;99.90
3690;DHT22;1861;50.240;8.596;2023-09-08T07:20:09;20.10;99.90
3690;DHT22;1861;50.240;8.596;2023-09-08T07:22:37;20.10;99.90
3690;DHT22;1861;50.240;8.596;2023-09-08T07:25:07;20.10;99.90
3690;DHT22;1861;50.240;8.596;2023-09-08T07:27:36;20.10;99.90
3690;DHT22;1861;50.240;8.596;2023-09-08T07:30:06;20.10;99.90
3690;DHT22;1861;50.240;8.596;2023-09-08T07:32:34;20.10;99.90
3690;DHT22;1861;50.240;8.596;2023-09-08T07:35:03;20.10;99.90
3690;DHT22;1861;50.240;8.596;2023-09-08T07:37:33;20.20;99.90
3690;DHT22;1861;50.240;8.596;2023-09-08T07:40:02;20.20;99.90
3690;DHT22;1861;50.240;8.596;2023-09-08T07:42:30;20.20;99.90
3690;DHT22;1861;50.240;8.596;2023-09-08T07:44:58;20.20;99.90
3690;DHT22;1861;50.240;8.596;2023-09-08T07:47:26;20.20;99.90
3690;DHT22;1861;50.240;8.596;2023-09-08T07:50:15;20.20;99.90
3690;DHT22;1861;50.240;8.596;2023-09-08T07:52:45;20.20;99.90
3690;DHT22;1861;50.240;8.596;2023-09-08T07:55:13;20.20;99.90
3690;DHT22;1861;50.240;8.596;2023-09-08T07:57:42;20.20;99.90
3690;DHT22;1861;50.240;8.596;2023-09-08T08:00:11;20.30;99.90
3690;DHT22;1861;50.240;8.596;2023-09-08T08:02:42;20.30;99.90
3690;DHT22;1861;50.240;8.596;2023-09-08T08:05:11;20.30;99.90
3690;DHT22;1861;50.240;8.596;2023-09-08T08:07:39;20.30;99.90
3690;DHT22;1861;50.240;8.596;2023-09-08T08:10:10;20.30;99.90
3690;DHT22;1861;50.240;8.596;2023-09-08T08:12:38;20.30;99.90
3690;DHT22;1861;50.240;8.596;2023-09-08T08:15:08;20.30;99.90
3690;DHT22;1861;50.240;8.596;2023-09-08T08:17:38;20.30;99.90
3690;DHT22;1861;50.240;8.596;2023-09-08T08:20:07;20.30;99.90
3690;DHT22;1861;50.240;8.596;2023-09-08T08:22:37;20.30;99.90
3690;DHT22;1861;50.240;8.596;2023-09-08T08:25:05;20.40;99.90
3690;DHT22;1861;50.240;8.596;2023-09-08T08:27:37;20.40;99.90
3690;DHT22;1861;50.240;8.596;2023-09-08T08:30:06;20.40;99.90
3690;DHT22;1861;50.240;8.596;2023-09-08T08:32:35;20.40;99.90
3690;DHT22;1861;50.240;8.596;2023-09-08T08:35:03;20.40;99.90
3690;DHT22;1861;50.240;8.596;2023-09-08T08:37:32;20.40;99.90
3690;DHT22;1861;50.240;8.596;2023-09-08T08:40:01;20.40;99.90
3690;DHT22;1861;50.240;8.596;2023-09-08T08:42:31;20.40;99.90
3690;DHT22;1861;50.240;8.596;2023-09-08T08:45:01;20.40;99.90
3690;DHT22;1861;50.240;8.596;2023-09-08T08:47:31;20.50;99.90
3690;DHT22;1861;50.240;8.596;2023-09-08T08:50:00;20.50;99.90
3690;DHT22;1861;50.240;8.596;2023-09-08T08:52:31;20.50;99.90
3690;DHT22;1861;50.240;8.596;2023-09-08T08:55:00;20.50;99.90
3690;DHT22;1861;50.240;8.596;2023-09-08T08:57:28;20.50;99.90
3690;DHT22;1861;50.240;8.596;2023-09-08T08:59:57;20.50;99.90
3690;DHT22;1861;50.240;8.596;2023-09-08T09:02:28;20.50;99.90
3690;DHT22;1861;50.240;8.596;2023-09-08T09:04:57;20.50;99.90
3690;DHT22;1861;50.240;8.596;2023-09-08T09:07:26;20.50;99.90
3690;DHT22;1861;50.240;8.596;2023-09-08T09:09:55;20.60;99.90
3690;DHT22;1861;50.240;8.596;2023-09-08T09:12:23;20.60;99.90
3690;DHT22;1861;50.240;8.596;2023-09-08T09:14:53;20.50;99.90
3690;DHT22;1861;50.240;8.596;2023-09-08T09:17:21;20.60;99.90
3690;DHT22;1861;50.240;8.596;2023-09-08T09:19:50;20.60;99.90
3690;DHT22;1861;50.240;8.596;2023-09-08T09:22:20;20.60;99.90
3690;DHT22;1861;50.240;8.596;2023-09-08T09:24:48;20.60;99.90
3690;DHT22;1861;50.240;8.596;2023-09-08T09:27:17;20.60;99.90
3690;DHT22;1861;50.240;8.596;2023-09-08T09:29:46;20.60;99.90
3690;DHT22;1861;50.240;8.596;2023-09-08T09:32:15;20.60;99.90
3690;DHT22;1861;50.240;8.596;2023-09-08T09:34:52;20.70;99.90
3690;DHT22;1861;50.240;8.596;2023-09-08T09:37:20;20.70;99.90
3690;DHT22;1861;50.240;8.596;2023-09-08T09:39:49;20.70;99.90
3690;DHT22;1861;50.240;8.596;2023-09-08T09:42:18;20.70;99.90
3690;DHT22;1861;50.240;8.596;2023-09-08T09:44:48;20.70;99.90
3690;DHT22;1861;50.240;8.596;2023-09-08T09:47:19;20.80;99.90
3690;DHT22;1861;50.240;8.596;2023-09-08T09:49:48;20.80;99.90
3690;DHT22;1861;50.240;8.596;2023-09-08T09:52:22;20.80;99.90
3690;DHT22;1861;50.240;8.596;2023-09-08T09:54:53;20.80;99.90
3690;DHT22;1861;50.240;8.596;2023-09-08T09:57:22;20.80;99.90
3690;DHT22;1861;50.240;8.596;2023-09-08T09:59:51;20.80;99.90
3690;DHT22;1861;50.240;8.596;2023-09-08T10:02:22;20.80;99.90
3690;DHT22;1861;50.240;8.596;2023-09-08T10:04:51;20.80;99.90
3690;DHT22;1861;50.240;8.596;2023-09-08T10:07:20;20.90;99.90
3690;DHT22;1861;50.240;8.596;2023-09-08T10:09:48;20.90;99.90
3690;DHT22;1861;50.240;8.596;2023-09-08T10:12:17;20.90;99.90
3690;DHT22;1861;50.240;8.596;2023-09-08T10:14:50;20.90;99.90
3690;DHT22;1861;50.240;8.596;2023-09-08T10:17:24;20.90;99.90
3690;DHT22;1861;50.240;8.596;2023-09-08T10:19:57;20.90;99.90
3690;DHT22;1861;50.240;8.596;2023-09-08T10:22:33;21.00;99.90
3690;DHT22;1861;50.240;8.596;2023-09-08T10:25:04;21.00;99.90
3690;DHT22;1861;50.240;8.596;2023-09-08T10:27:33;21.00;99.90
3690;DHT22;1861;50.240;8.596;2023-09-08T10:30:05;21.10;99.90
3690;DHT22;1861;50.240;8.596;2023-09-08T10:32:34;21.10;99.90
3690;DHT22;1861;50.240;8.596;2023-09-08T10:35:04;21.10;99.90
3690;DHT22;1861;50.240;8.596;2023-09-08T10:37:34;21.10;99.90
3690;DHT22;1861;50.240;8.596;2023-09-08T10:40:20;21.10;99.90
3690;DHT22;1861;50.240;8.596;2023-09-08T10:42:49;21.20;99.90
3690;DHT22;1861;50.240;8.596;2023-09-08T10:45:19;21.20;99.90
3690;DHT22;1861;50.240;8.596;2023-09-08T10:47:57;21.20;99.90
3690;DHT22;1861;50.240;8.596;2023-09-08T10:50:31;21.30;99.90
3690;DHT22;1861;50.240;8.596;2023-09-08T10:53:19;21.30;99.90
3690;DHT22;1861;50.240;8.596;2023-09-08T10:55:49;21.30;99.90
3690;DHT22;1861;50.240;8.596;2023-09-08T10:58:30;21.40;99.90
3690;DHT22;1861;50.240;8.596;2023-09-08T11:01:00;21.40;99.90
3690;DHT22;1861;50.240;8.596;2023-09-08T11:03:43;21.40;99.90
3690;DHT22;1861;50.240;8.596;2023-09-08T11:06:14;21.40;99.90
3690;DHT22;1861;50.240;8.596;2023-09-08T11:08:45;21.50;99.90
3690;DHT22;1861;50.240;8.596;2023-09-08T11:11:15;21.50;99.90
3690;DHT22;1861;50.240;8.596;2023-09-08T11:13:43;21.60;99.90
3690;DHT22;1861;50.240;8.596;2023-09-08T11:16:13;21.60;99.90
3690;DHT22;1861;50.240;8.596;2023-09-08T11:18:41;21.60;99.90
3690;DHT22;1861;50.240;8.596;2023-09-08T11:21:10;21.60;99.90
3690;DHT22;1861;50.240;8.596;2023-09-08T11:23:38;21.50;99.90
3690;DHT22;1861;50.240;8.596;2023-09-08T11:26:09;21.60;99.90
3690;DHT22;1861;50.240;8.596;2023-09-08T11:28:37;21.60;99.90
3690;DHT22;1861;50.240;8.596;2023-09-08T11:31:06;21.60;99.90
3690;DHT22;1861;50.240;8.596;2023-09-08T11:33:35;21.60;99.90
3690;DHT22;1861;50.240;8.596;2023-09-08T11:36:12;21.60;99.90
3690;DHT22;1861;50.240;8.596;2023-09-08T11:38:43;21.60;99.90
3690;DHT22;1861;50.240;8.596;2023-09-08T11:41:13;21.60;99.90
3690;DHT22;1861;50.240;8.596;2023-09-08T11:43:41;21.60;99.90
3690;DHT22;1861;50.240;8.596;2023-09-08T11:46:11;21.60;99.90
3690;DHT22;1861;50.240;8.596;2023-09-08T11:48:40;21.60;99.90
3690;DHT22;1861;50.240;8.596;2023-09-08T11:51:09;21.70;99.90
3690;DHT22;1861;50.240;8.596;2023-09-08T11:53:38;21.70;99.90
3690;DHT22;1861;50.240;8.596;2023-09-08T11:56:07;21.70;99.90
3690;DHT22;1861;50.240;8.596;2023-09-08T11:58:37;21.70;99.90
3690;DHT22;1861;50.240;8.596;2023-09-08T12:01:06;21.70;99.90
3690;DHT22;1861;50.240;8.596;2023-09-08T12:03:34;21.60;99.90
3690;DHT22;1861;50.240;8.596;2023-09-08T12:06:02;21.60;99.90
3690;DHT22;1861;50.240;8.596;2023-09-08T12:08:30;21.60;99.90
3690;DHT22;1861;50.240;8.596;2023-09-08T12:10:59;21.50;99.90
3690;DHT22;1861;50.240;8.596;2023-09-08T12:13:27;21.60;99.90
3690;DHT22;1861;50.240;8.596;2023-09-08T12:15:56;21.60;99.90
3690;DHT22;1861;50.240;8.596;2023-09-08T12:18:38;21.60;99.90
3690;DHT22;1861;50.240;8.596;2023-09-08T12:21:06;21.70;99.90
3690;DHT22;1861;50.240;8.596;2023-09-08T12:23:47;21.70;99.90
3690;DHT22;1861;50.240;8.596;2023-09-08T12:26:15;21.70;99.90
3690;DHT22;1861;50.240;8.596;2023-09-08T12:28:46;21.70;99.90
3690;DHT22;1861;50.240;8.596;2023-09-08T12:31:17;21.80;99.90
3690;DHT22;1861;50.240;8.596;2023-09-08T12:33:46;21.80;99.90
3690;DHT22;1861;50.240;8.596;2023-09-08T12:36:15;21.80;99.90
3690;DHT22;1861;50.240;8.596;2023-09-08T12:38:47;21.90;99.90
3690;DHT22;1861;50.240;8.596;2023-09-08T12:41:16;21.90;99.90
3690;DHT22;1861;50.240;8.596;2023-09-08T12:43:45;21.90;99.90
3690;DHT22;1861;50.240;8.596;2023-09-08T12:46:13;21.90;99.90
3690;DHT22;1861;50.240;8.596;2023-09-08T12:48:46;21.90;99.90
3690;DHT22;1861;50.240;8.596;2023-09-08T12:51:14;21.90;99.90
3690;DHT22;1861;50.240;8.596;2023-09-08T12:53:42;21.90;99.90
3690;DHT22;1861;50.240;8.596;2023-09-08T12:56:10;21.90;99.90
3690;DHT22;1861;50.240;8.596;2023-09-08T12:58:38;21.80;99.90
3690;DHT22;1861;50.240;8.596;2023-09-08T13:01:06;21.80;99.90
3690;DHT22;1861;50.240;8.596;2023-09-08T13:03:34;21.80;99.90
3690;DHT22;1861;50.240;8.596;2023-09-08T13:06:04;21.80;99.90
3690;DHT22;1861;50.240;8.596;2023-09-08T13:08:32;21.80;99.90
3690;DHT22;1861;50.240;8.596;2023-09-08T13:11:01;21.80;99.90
3690;DHT22;1861;50.240;8.596;2023-09-08T13:13:30;21.70;99.90
3690;DHT22;1861;50.240;8.596;2023-09-08T13:15:58;21.70;99.90
3690;DHT22;1861;50.240;8.596;2023-09-08T13:18:26;21.70;99.90
3690;DHT22;1861;50.240;8.596;2023-09-08T13:20:54;21.70;99.90
3690;DHT22;1861;50.240;8.596;2023-09-08T13:23:24;21.60;99.90
3690;DHT22;1861;50.240;8.596;2023-09-08T13:25:52;21.60;99.90
3690;DHT22;1861;50.240;8.596;2023-09-08T13:28:20;21.70;99.90
3690;DHT22;1861;50.240;8.596;2023-09-08T13:30:48;21.70;99.90
3690;DHT22;1861;50.240;8.596;2023-09-08T13:33:16;21.60;99.90
3690;DHT22;1861;50.240;8.596;2023-09-08T13:35:44;21.60;99.90
3690;DHT22;1861;50.240;8.596;2023-09-08T13:38:12;21.60;99.90
3690;DHT22;1861;50.240;8.596;2023-09-08T13:40:42;21.60;99.90
3690;DHT22;1861;50.240;8.596;2023-09-08T13:43:10;21.60;99.90
3690;DHT22;1861;50.240;8.596;2023-09-08T13:45:39;21.60;99.90
3690;DHT22;1861;50.240;8.596;2023-09-08T13:48:09;21.60;99.90
3690;DHT22;1861;50.240;8.596;2023-09-08T13:50:38;21.60;99.90
3690;DHT22;1861;50.240;8.596;2023-09-08T13:53:10;21.60;99.90
3690;DHT22;1861;50.240;8.596;2023-09-08T13:55:42;21.60;99.90
3690;DHT22;1861;50.240;8.596;2023-09-08T13:58:11;21.60;99.90
3690;DHT22;1861;50.240;8.596;2023-09-08T14:00:40;21.60;99.90
3690;DHT22;1861;50.240;8.596;2023-09-08T14:03:12;21.60;99.90
3690;DHT22;1861;50.240;8.596;2023-09-08T14:05:44;21.60;99.90
3690;DHT22;1861;50.240;8.596;2023-09-08T14:08:17;21.60;99.90
3690;DHT22;1861;50.240;8.596;2023-09-08T14:10:52;21.60;99.90
3690;DHT22;1861;50.240;8.596;2023-09-08T14:13:36;21.60;99.90
3690;DHT22;1861;50.240;8.596;2023-09-08T14:16:04;21.60;99.90
3690;DHT22;1861;50.240;8.596;2023-09-08T14:18:33;21.50;99.90
3690;DHT22;1861;50.240;8.596;2023-09-08T14:21:01;21.60;99.90
3690;DHT22;1861;50.240;8.596;2023-09-08T14:23:29;21.50;99.90
3690;DHT22;1861;50.240;8.596;2023-09-08T14:25:59;21.60;99.90
3690;DHT22;1861;50.240;8.596;2023-09-08T14:28:27;21.50;99.90
3690;DHT22;1861;50.240;8.596;2023-09-08T14:30:55;21.60;99.90
3690;DHT22;1861;50.240;8.596;2023-09-08T14:33:23;21.60;99.90
3690;DHT22;1861;50.240;8.596;2023-09-08T14:35:52;21.50;99.90
3690;DHT22;1861;50.240;8.596;2023-09-08T14:38:21;21.50;99.90
3690;DHT22;1861;50.240;8.596;2023-09-08T14:40:56;21.40;99.90
3690;DHT22;1861;50.240;8.596;2023-09-08T14:43:26;21.50;99.90
3690;DHT22;1861;50.240;8.596;2023-09-08T14:45:55;21.50;99.90
3690;DHT22;1861;50.240;8.596;2023-09-08T14:48:24;21.50;99.90
3690;DHT22;1861;50.240;8.596;2023-09-08T14:50:52;21.50;99.90
3690;DHT22;1861;50.240;8.596;2023-09-08T14:53:21;21.50;99.90
3690;DHT22;1861;50.240;8.596;2023-09-08T14:55:50;21.50;99.90
3690;DHT22;1861;50.240;8.596;2023-09-08T14:58:22;21.50;99.90
3690;DHT22;1861;50.240;8.596;2023-09-08T15:00:51;21.50;99.90
3690;DHT22;1861;50.240;8.596;2023-09-08T15:03:20;21.50;99.90
3690;DHT22;1861;50.240;8.596;2023-09-08T15:05:48;21.50;99.90
3690;DHT22;1861;50.240;8.596;2023-09-08T15:08:16;21.50;99.90
3690;DHT22;1861;50.240;8.596;2023-09-08T15:10:45;21.50;99.90
3690;DHT22;1861;50.240;8.596;2023-09-08T15:13:13;21.50;99.90
3690;DHT22;1861;50.240;8.596;2023-09-08T15:15:41;21.50;99.90
3690;DHT22;1861;50.240;8.596;2023-09-08T15:18:10;21.50;99.90
3690;DHT22;1861;50.240;8.596;2023-09-08T15:20:38;21.50;99.90
3690;DHT22;1861;50.240;8.596;2023-09-08T15:23:07;21.50;99.90
3690;DHT22;1861;50.240;8.596;2023-09-08T15:25:36;21.60;99.90
3690;DHT22;1861;50.240;8.596;2023-09-08T15:28:04;21.60;99.90
3690;DHT22;1861;50.240;8.596;2023-09-08T15:30:32;21.50;99.90
3690;DHT22;1861;50.240;8.596;2023-09-08T15:33:02;21.60;99.90
3690;DHT22;1861;50.240;8.596;2023-09-08T15:35:33;21.50;99.90
3690;DHT22;1861;50.240;8.596;2023-09-08T15:38:01;21.50;99.90
3690;DHT22;1861;50.240;8.596;2023-09-08T15:40:30;21.60;99.90
3690;DHT22;1861;50.240;8.596;2023-09-08T15:42:58;21.60;99.90
3690;DHT22;1861;50.240;8.596;2023-09-08T15:45:26;21.60;99.90
3690;DHT22;1861;50.240;8.596;2023-09-08T15:47:54;21.60;99.90
3690;DHT22;1861;50.240;8.596;2023-09-08T15:50:22;21.60;99.90
3690;DHT22;1861;50.240;8.596;2023-09-08T15:52:51;21.60;99.90
3690;DHT22;1861;50.240;8.596;2023-09-08T15:55:20;21.60;99.90
3690;DHT22;1861;50.240;8.596;2023-09-08T15:57:48;21.60;99.90
3690;DHT22;1861;50.240;8.596;2023-09-08T16:00:16;21.50;99.90
3690;DHT22;1861;50.240;8.596;2023-09-08T16:02:44;21.60;99.90
3690;DHT22;1861;50.240;8.596;2023-09-08T16:05:13;21.50;99.90
3690;DHT22;1861;50.240;8.596;2023-09-08T16:07:42;21.60;99.90
3690;DHT22;1861;50.240;8.596;2023-09-08T16:10:13;21.50;99.90
3690;DHT22;1861;50.240;8.596;2023-09-08T16:12:42;21.60;99.90
3690;DHT22;1861;50.240;8.596;2023-09-08T16:15:10;21.50;99.90
3690;DHT22;1861;50.240;8.596;2023-09-08T16:17:38;21.50;99.90